createdAt,value
2022-07-31T00:00:22.741Z,17.40
2022-07-31T00:02:51.220Z,16.67
2022-07-31T00:05:18.879Z,17.17
2022-07-31T00:07:46.562Z,18.53
2022-07-31T00:10:14.326Z,15.47
2022-07-31T00:12:43.476Z,16.17
2022-07-31T00:15:12.530Z,17.97
2022-07-31T00:17:40.266Z,17.40
2022-07-31T00:20:09.547Z,16.97
2022-07-31T00:22:37.773Z,18.03
2022-07-31T00:25:06.208Z,16.93
2022-07-31T00:27:34.005Z,16.50
2022-07-31T00:30:02.962Z,16.33
2022-07-31T00:32:30.546Z,16.77
2022-07-31T00:34:58.118Z,15.10
2022-07-31T00:37:26.052Z,18.73
2022-07-31T00:39:54.345Z,17.47
2022-07-31T00:42:22.838Z,16.47
2022-07-31T00:44:51.291Z,16.00
2022-07-31T00:47:22.267Z,14.43
2022-07-31T00:49:53.324Z,16.87
2022-07-31T00:52:21.578Z,14.77
2022-07-31T00:54:49.197Z,14.53
2022-07-31T00:57:16.778Z,14.43
2022-07-31T00:59:44.661Z,16.63
2022-07-31T01:02:12.753Z,14.83
2022-07-31T01:04:41.914Z,16.03
2022-07-31T01:07:12.338Z,18.10
2022-07-31T01:09:40.120Z,17.23
2022-07-31T01:12:13.199Z,16.50
2022-07-31T01:14:49.002Z,16.97
2022-07-31T01:17:18.105Z,17.10
2022-07-31T01:19:48.937Z,21.23
2022-07-31T01:22:33.362Z,15.93
2022-07-31T01:25:08.555Z,16.80
2022-07-31T01:27:53.844Z,14.40
2022-07-31T01:30:28.950Z,15.53
2022-07-31T01:32:59.122Z,14.70
2022-07-31T01:35:28.643Z,15.67
2022-07-31T01:38:00.444Z,14.30
2022-07-31T01:40:31.066Z,15.43
2022-07-31T01:43:03.377Z,16.90
2022-07-31T01:45:34.099Z,15.60
2022-07-31T01:48:02.954Z,15.80
2022-07-31T01:50:43.262Z,17.57
2022-07-31T01:53:14.315Z,17.43
2022-07-31T01:56:02.563Z,15.97
2022-07-31T01:58:34.926Z,15.93
2022-07-31T02:01:11.517Z,17.73
2022-07-31T02:03:43.527Z,17.57
2022-07-31T02:06:16.068Z,15.90
2022-07-31T02:08:45.066Z,16.30
2022-07-31T02:11:15.961Z,16.10
2022-07-31T02:13:44.595Z,18.50
2022-07-31T02:16:14.632Z,17.80
2022-07-31T02:18:42.970Z,17.73
2022-07-31T02:21:22.331Z,16.43
2022-07-31T02:23:52.383Z,15.80
2022-07-31T02:26:20.329Z,16.53
2022-07-31T02:28:48.649Z,18.13
2022-07-31T02:31:18.400Z,16.60
2022-07-31T02:33:48.214Z,16.13
2022-07-31T02:36:18.851Z,17.20
2022-07-31T02:38:47.225Z,16.70
2022-07-31T02:41:15.808Z,17.60
2022-07-31T02:43:45.443Z,16.47
2022-07-31T02:46:23.038Z,19.43
2022-07-31T02:48:52.213Z,17.37
2022-07-31T02:51:22.653Z,19.23
2022-07-31T02:53:52.417Z,18.17
2022-07-31T02:56:22.600Z,17.33
2022-07-31T02:58:50.232Z,18.60
2022-07-31T03:01:24.575Z,21.20
2022-07-31T03:03:52.609Z,18.47
2022-07-31T03:06:20.326Z,19.47
2022-07-31T03:08:48.357Z,16.73
2022-07-31T03:11:20.006Z,16.87
2022-07-31T03:13:49.076Z,17.20
2022-07-31T03:16:16.852Z,18.57
2022-07-31T03:18:46.808Z,19.97
2022-07-31T03:21:14.666Z,17.97
2022-07-31T03:23:42.495Z,18.87
2022-07-31T03:26:16.692Z,18.97
2022-07-31T03:28:44.362Z,18.90
2022-07-31T03:31:11.960Z,19.20
2022-07-31T03:33:39.660Z,20.60
2022-07-31T03:36:09.756Z,19.80
2022-07-31T03:38:41.235Z,20.20
2022-07-31T03:41:17.798Z,19.70
2022-07-31T03:43:47.912Z,20.03
2022-07-31T03:46:20.363Z,20.40
2022-07-31T03:48:51.857Z,18.00
2022-07-31T03:51:21.429Z,18.07
2022-07-31T03:53:49.822Z,19.40
2022-07-31T03:56:49.040Z,17.10
2022-07-31T03:59:18.704Z,17.60
2022-07-31T04:02:10.434Z,18.70
2022-07-31T04:04:48.302Z,18.33
2022-07-31T04:07:17.331Z,17.80
2022-07-31T04:09:45.073Z,20.30
2022-07-31T04:12:13.983Z,19.43
2022-07-31T04:14:41.631Z,19.00
2022-07-31T04:17:09.513Z,18.73
2022-07-31T04:19:37.480Z,19.40
2022-07-31T04:22:06.640Z,18.50
2022-07-31T04:24:36.285Z,17.93
2022-07-31T04:27:22.749Z,19.27
2022-07-31T04:29:50.678Z,19.67
2022-07-31T04:32:21.877Z,16.73
2022-07-31T04:34:54.587Z,17.87
2022-07-31T04:37:22.492Z,18.50
2022-07-31T04:39:51.842Z,18.60
2022-07-31T04:42:20.031Z,19.33
2022-07-31T04:44:47.707Z,18.70
2022-07-31T04:47:16.754Z,17.80
2022-07-31T04:49:48.395Z,16.80
2022-07-31T04:52:17.954Z,16.37
2022-07-31T04:54:47.851Z,17.40
2022-07-31T04:57:21.723Z,18.20
2022-07-31T05:00:00.541Z,15.87
2022-07-31T05:02:31.194Z,15.83
2022-07-31T05:04:58.912Z,15.57
2022-07-31T05:07:36.288Z,14.00
2022-07-31T05:10:30.484Z,14.13
2022-07-31T05:12:59.540Z,16.30
2022-07-31T05:15:27.427Z,18.67
2022-07-31T05:17:57.073Z,14.40
2022-07-31T05:20:47.737Z,15.97
2022-07-31T05:23:45.970Z,14.73
2022-07-31T05:26:19.007Z,17.20
2022-07-31T05:28:49.584Z,16.10
2022-07-31T05:31:19.734Z,15.47
2022-07-31T05:33:49.240Z,15.20
2022-07-31T05:36:17.591Z,14.20
2022-07-31T05:38:45.428Z,16.17
2022-07-31T05:41:34.069Z,17.37
2022-07-31T05:44:17.468Z,17.00
2022-07-31T05:46:47.412Z,16.43
2022-07-31T05:49:15.745Z,18.00
2022-07-31T05:51:46.567Z,19.50
2022-07-31T05:54:14.394Z,20.30
2022-07-31T05:57:00.339Z,18.57
2022-07-31T05:59:41.497Z,18.57
2022-07-31T06:02:09.335Z,17.30
2022-07-31T06:05:10.431Z,16.90
2022-07-31T06:07:39.102Z,15.67
2022-07-31T06:10:07.901Z,17.07
2022-07-31T06:12:35.558Z,16.10
2022-07-31T06:15:05.030Z,14.30
2022-07-31T06:17:44.225Z,15.77
2022-07-31T06:20:21.180Z,15.47
2022-07-31T06:22:49.256Z,16.23
2022-07-31T06:25:17.234Z,14.57
2022-07-31T06:27:45.968Z,12.97
2022-07-31T06:30:20.000Z,14.73
2022-07-31T06:32:49.050Z,13.80
2022-07-31T06:35:16.815Z,13.20
2022-07-31T06:38:04.641Z,10.20
2022-07-31T06:40:44.983Z,11.70
2022-07-31T06:43:24.759Z,11.10
2022-07-31T06:46:15.758Z,11.20
2022-07-31T06:49:15.803Z,6.80
2022-07-31T06:51:43.474Z,7.33
2022-07-31T06:54:11.946Z,7.10
2022-07-31T06:56:40.278Z,8.60
2022-07-31T06:59:08.457Z,8.20
2022-07-31T07:01:37.767Z,6.80
2022-07-31T07:04:05.687Z,7.40
2022-07-31T07:06:33.426Z,4.80
2022-07-31T07:09:01.065Z,4.80
2022-07-31T07:11:28.826Z,5.43
2022-07-31T07:13:56.467Z,5.17
2022-07-31T07:16:24.178Z,3.90
2022-07-31T07:18:53.124Z,5.10
2022-07-31T07:21:23.750Z,3.63
2022-07-31T07:23:51.364Z,4.10
2022-07-31T07:26:34.128Z,3.70
2022-07-31T07:29:03.484Z,4.10
2022-07-31T07:31:32.770Z,5.27
2022-07-31T07:34:06.085Z,4.47
2022-07-31T07:36:34.257Z,5.93
2022-07-31T07:39:05.156Z,7.73
2022-07-31T07:41:34.690Z,7.43
2022-07-31T07:44:02.828Z,8.13
2022-07-31T07:46:31.723Z,8.70
2022-07-31T07:49:05.591Z,8.60
2022-07-31T07:51:35.960Z,9.30
2022-07-31T07:54:22.171Z,6.90
2022-07-31T07:57:08.565Z,6.23
2022-07-31T08:00:03.290Z,6.93
2022-07-31T08:03:02.902Z,6.60
2022-07-31T08:05:43.350Z,5.73
2022-07-31T08:08:11.337Z,6.20
2022-07-31T08:10:48.014Z,6.20
2022-07-31T08:13:22.656Z,5.23
2022-07-31T08:16:25.776Z,5.70
2022-07-31T08:18:57.467Z,6.00
2022-07-31T08:21:27.760Z,5.70
2022-07-31T08:23:56.042Z,5.90
2022-07-31T08:26:23.691Z,5.30
2022-07-31T08:28:55.917Z,5.60
2022-07-31T08:31:25.576Z,5.10
2022-07-31T08:34:10.274Z,4.70
2022-07-31T08:36:40.054Z,5.30
2022-07-31T08:39:07.900Z,5.40
2022-07-31T08:42:05.224Z,4.60
2022-07-31T08:44:33.064Z,3.90
2022-07-31T08:47:01.066Z,5.00
2022-07-31T08:49:30.324Z,4.33
2022-07-31T08:52:00.219Z,4.97
2022-07-31T08:54:55.343Z,4.13
2022-07-31T08:57:26.852Z,4.77
2022-07-31T08:59:55.444Z,5.53
2022-07-31T09:02:23.554Z,4.57
2022-07-31T09:05:13.143Z,5.27
2022-07-31T09:07:43.182Z,4.30
2022-07-31T09:10:21.751Z,4.47
2022-07-31T09:12:50.864Z,4.30
2022-07-31T09:15:24.028Z,4.80
2022-07-31T09:17:53.862Z,4.10
2022-07-31T09:20:24.389Z,4.50
2022-07-31T09:23:05.209Z,4.00
2022-07-31T09:25:33.637Z,4.23
2022-07-31T09:28:03.287Z,4.20
2022-07-31T09:30:31.932Z,3.60
2022-07-31T09:33:21.653Z,4.93
2022-07-31T09:36:01.538Z,3.80
2022-07-31T09:38:34.184Z,2.80
2022-07-31T09:41:55.639Z,3.30
2022-07-31T09:44:16.814Z,3.13
2022-07-31T09:46:48.169Z,3.43
2022-07-31T09:49:16.098Z,3.23
2022-07-31T09:51:48.316Z,3.27
2022-07-31T09:54:26.341Z,3.13
2022-07-31T09:57:00.270Z,3.63
2022-07-31T09:59:33.297Z,3.60
2022-07-31T10:02:01.663Z,2.90
2022-07-31T10:04:29.791Z,2.90
2022-07-31T10:06:57.930Z,3.23
2022-07-31T10:09:28.483Z,3.10
2022-07-31T10:12:06.567Z,3.10
2022-07-31T10:14:40.063Z,2.87
2022-07-31T10:17:08.493Z,2.73
2022-07-31T10:19:51.214Z,3.53
2022-07-31T10:22:45.062Z,3.60
2022-07-31T10:25:21.021Z,5.00
2022-07-31T10:27:49.814Z,3.63
2022-07-31T10:30:18.035Z,2.90
2022-07-31T10:32:52.754Z,3.90
2022-07-31T10:35:29.520Z,3.20
2022-07-31T10:38:05.778Z,3.00
2022-07-31T10:41:07.032Z,3.00
2022-07-31T10:43:40.800Z,3.50
2022-07-31T10:46:13.927Z,3.30
2022-07-31T10:49:08.527Z,2.80
2022-07-31T10:51:55.641Z,3.40
2022-07-31T10:54:47.472Z,2.77
2022-07-31T10:57:55.418Z,2.90
2022-07-31T11:00:31.252Z,2.80
2022-07-31T11:03:19.338Z,2.80
2022-07-31T11:06:05.500Z,2.43
2022-07-31T11:08:55.570Z,3.13
2022-07-31T11:11:42.055Z,2.33
2022-07-31T11:14:38.774Z,2.73
2022-07-31T11:18:21.269Z,2.23
2022-07-31T11:20:26.947Z,2.70
2022-07-31T11:23:03.170Z,3.10
2022-07-31T11:25:34.068Z,2.40
2022-07-31T11:28:11.774Z,2.43
2022-07-31T11:30:51.170Z,2.27
2022-07-31T11:33:41.577Z,2.87
2022-07-31T11:36:12.542Z,2.27
2022-07-31T11:38:41.584Z,1.90
2022-07-31T11:41:09.984Z,2.23
2022-07-31T11:43:39.559Z,2.73
2022-07-31T11:46:08.575Z,2.70
2022-07-31T11:48:44.910Z,2.13
2022-07-31T11:51:18.318Z,2.13
2022-07-31T11:53:51.129Z,2.63
2022-07-31T11:56:25.792Z,2.43
2022-07-31T11:58:54.785Z,2.50
2022-07-31T12:01:28.218Z,2.37
2022-07-31T12:03:56.436Z,2.10
2022-07-31T12:06:24.343Z,2.63
2022-07-31T12:08:53.300Z,2.40
2022-07-31T12:11:21.753Z,1.77
2022-07-31T12:13:50.301Z,1.93
2022-07-31T12:16:18.642Z,2.57
2022-07-31T12:18:49.697Z,2.60
2022-07-31T12:21:18.114Z,2.03
2022-07-31T12:23:47.445Z,2.20
2022-07-31T12:26:23.241Z,2.80
2022-07-31T12:28:58.361Z,2.47
2022-07-31T12:31:26.172Z,2.13
2022-07-31T12:33:55.549Z,2.37
2022-07-31T12:36:23.481Z,3.00
2022-07-31T12:39:00.801Z,2.50
2022-07-31T12:41:28.759Z,2.63
2022-07-31T12:43:56.608Z,2.13
2022-07-31T12:46:36.731Z,2.13
2022-07-31T12:49:06.493Z,2.20
2022-07-31T12:51:44.878Z,2.50
2022-07-31T12:54:15.569Z,3.00
2022-07-31T12:56:43.961Z,2.00
2022-07-31T12:59:12.123Z,2.80
2022-07-31T13:01:39.981Z,2.80
2022-07-31T13:04:18.721Z,2.27
2022-07-31T13:06:51.087Z,2.70
2022-07-31T13:09:19.370Z,2.40
2022-07-31T13:11:48.365Z,2.37
2022-07-31T13:16:57.563Z,3.50
2022-07-31T13:19:25.117Z,2.27
2022-07-31T13:21:52.701Z,2.50
2022-07-31T13:24:24.614Z,2.33
2022-07-31T13:26:52.838Z,2.57
2022-07-31T13:29:20.632Z,2.57
2022-07-31T13:31:48.390Z,3.30
2022-07-31T13:34:17.354Z,2.40
2022-07-31T13:36:44.921Z,2.47
2022-07-31T13:39:12.565Z,2.40
2022-07-31T13:41:40.413Z,2.20
2022-07-31T13:44:08.436Z,2.60
2022-07-31T13:46:36.523Z,2.57
2022-07-31T13:49:08.267Z,2.57
2022-07-31T13:51:37.774Z,2.60
2022-07-31T13:54:05.612Z,2.77
2022-07-31T13:56:39.705Z,2.13
2022-07-31T13:59:11.874Z,2.13
2022-07-31T14:02:13.600Z,2.30
2022-07-31T14:04:28.553Z,2.57
2022-07-31T14:07:03.513Z,3.20
2022-07-31T14:09:34.113Z,2.50
2022-07-31T14:12:03.835Z,2.70
2022-07-31T14:14:32.889Z,2.50
2022-07-31T14:17:00.562Z,2.47
2022-07-31T14:19:28.275Z,2.40
2022-07-31T14:21:57.361Z,2.93
2022-07-31T14:24:27.152Z,3.00
2022-07-31T14:26:54.830Z,3.43
2022-07-31T14:29:22.460Z,3.20
2022-07-31T14:31:50.324Z,2.97
2022-07-31T14:34:17.931Z,4.13
2022-07-31T14:36:45.500Z,3.03
2022-07-31T14:39:13.097Z,2.80
2022-07-31T14:41:41.994Z,2.67
2022-07-31T14:44:09.587Z,3.30
2022-07-31T14:46:37.177Z,4.10
2022-07-31T14:49:05.382Z,3.43
2022-07-31T14:51:33.013Z,2.73
2022-07-31T14:54:00.576Z,3.83
2022-07-31T14:56:58.421Z,3.10
2022-07-31T14:59:17.014Z,3.07
2022-07-31T15:01:44.616Z,3.50
2022-07-31T15:04:12.312Z,3.67
2022-07-31T15:06:59.013Z,4.10
2022-07-31T15:09:27.796Z,4.30
2022-07-31T15:12:00.951Z,4.47
2022-07-31T15:14:30.416Z,4.90
2022-07-31T15:16:58.029Z,4.57
2022-07-31T15:19:25.670Z,4.63
2022-07-31T15:22:10.643Z,6.23
2022-07-31T15:24:46.879Z,5.27
2022-07-31T15:27:17.745Z,6.30
2022-07-31T15:30:04.456Z,6.67
2022-07-31T15:32:34.395Z,7.10
2022-07-31T15:35:02.691Z,7.50
2022-07-31T15:37:30.485Z,7.00
2022-07-31T15:40:02.823Z,7.40
2022-07-31T15:42:31.796Z,7.17
2022-07-31T15:45:00.820Z,7.30
2022-07-31T15:47:28.518Z,7.93
2022-07-31T15:49:56.109Z,9.03
2022-07-31T15:52:23.749Z,8.20
2022-07-31T15:54:52.580Z,7.93
2022-07-31T15:57:20.614Z,8.60
2022-07-31T15:59:48.358Z,8.50
2022-07-31T16:02:17.639Z,7.80
2022-07-31T16:04:53.381Z,7.57
2022-07-31T16:08:32.999Z,8.63
2022-07-31T16:10:15.552Z,9.23
2022-07-31T16:12:45.378Z,8.80
2022-07-31T16:15:13.432Z,9.80
2022-07-31T16:17:42.626Z,9.20
2022-07-31T16:20:12.588Z,9.43
2022-07-31T16:22:41.536Z,10.20
2022-07-31T16:25:10.707Z,10.60
2022-07-31T16:27:38.898Z,10.63
2022-07-31T16:30:08.068Z,10.63
2022-07-31T16:32:35.730Z,10.70
2022-07-31T16:35:06.176Z,11.80
2022-07-31T16:37:51.712Z,11.20
2022-07-31T16:40:30.898Z,10.70
2022-07-31T16:43:01.822Z,11.13
2022-07-31T16:45:30.730Z,11.50
2022-07-31T16:47:58.615Z,10.87
2022-07-31T16:50:27.707Z,10.00
2022-07-31T16:52:55.602Z,11.60
2022-07-31T16:55:55.762Z,12.73
2022-07-31T16:58:12.213Z,12.30
2022-07-31T17:00:40.263Z,12.40
2022-07-31T17:04:02.134Z,12.87
2022-07-31T17:05:57.819Z,12.67
2022-07-31T17:08:25.490Z,14.20
2022-07-31T17:10:54.859Z,13.27
2022-07-31T17:13:22.780Z,13.97
2022-07-31T17:15:50.358Z,13.50
2022-07-31T17:18:17.949Z,13.90
2022-07-31T17:20:47.149Z,15.30
2022-07-31T17:23:16.676Z,14.83
2022-07-31T17:26:04.344Z,15.13
2022-07-31T17:28:31.954Z,15.40
2022-07-31T17:30:59.541Z,15.70
2022-07-31T17:33:54.636Z,14.53
2022-07-31T17:36:14.991Z,17.00
2022-07-31T17:38:43.896Z,16.33
2022-07-31T17:41:24.673Z,17.80
2022-07-31T17:43:53.125Z,18.53
2022-07-31T17:46:21.987Z,20.07
2022-07-31T17:48:56.041Z,17.97
2022-07-31T17:51:23.765Z,17.07
2022-07-31T17:53:55.230Z,19.07
2022-07-31T17:56:27.246Z,17.10
2022-07-31T17:58:55.465Z,18.73
2022-07-31T18:01:28.555Z,19.13
2022-07-31T18:03:56.566Z,20.87
2022-07-31T18:06:24.214Z,20.80
2022-07-31T18:08:53.183Z,19.20
2022-07-31T18:11:21.351Z,20.10
2022-07-31T18:13:51.661Z,19.57
2022-07-31T18:16:24.626Z,18.87
2022-07-31T18:18:54.452Z,19.87
2022-07-31T18:21:22.474Z,19.70
2022-07-31T18:23:50.092Z,19.60
2022-07-31T18:26:19.015Z,20.57
2022-07-31T18:28:46.681Z,22.87
2022-07-31T18:31:34.423Z,21.53
2022-07-31T18:34:02.274Z,22.47
2022-07-31T18:36:29.892Z,20.20
2022-07-31T18:38:57.728Z,21.60
2022-07-31T18:41:27.051Z,22.93
2022-07-31T18:43:54.674Z,21.67
2022-07-31T18:46:23.638Z,24.00
2022-07-31T18:48:55.445Z,22.93
2022-07-31T18:51:23.838Z,22.07
2022-07-31T18:53:51.929Z,22.13
2022-07-31T18:56:22.548Z,23.97
2022-07-31T18:58:51.848Z,23.97
2022-07-31T19:01:19.530Z,23.87
2022-07-31T19:03:47.242Z,22.97
2022-07-31T19:06:14.836Z,25.07
2022-07-31T19:08:42.600Z,25.20
2022-07-31T19:11:11.699Z,25.47
2022-07-31T19:13:39.314Z,26.83
2022-07-31T19:16:08.453Z,25.57
2022-07-31T19:18:37.619Z,24.17
2022-07-31T19:21:22.983Z,23.43
2022-07-31T19:23:53.571Z,22.87
2022-07-31T19:26:21.266Z,21.50
2022-07-31T19:28:48.855Z,17.80
2022-07-31T19:31:18.018Z,17.87
2022-07-31T19:33:45.583Z,16.63
2022-07-31T19:36:15.262Z,17.70
2022-07-31T19:38:44.299Z,18.10
2022-07-31T19:41:12.286Z,19.77
2022-07-31T19:43:39.920Z,18.47
2022-07-31T19:46:11.500Z,19.00
2022-07-31T19:48:41.488Z,18.53
2022-07-31T19:51:09.499Z,18.13
2022-07-31T19:53:37.328Z,18.60
2022-07-31T19:56:06.446Z,18.63
2022-07-31T19:58:34.999Z,20.20
2022-07-31T20:01:03.403Z,17.60
2022-07-31T20:03:31.115Z,16.57
2022-07-31T20:06:00.168Z,17.67
2022-07-31T20:08:29.674Z,15.30
2022-07-31T20:11:03.248Z,14.43
2022-07-31T20:13:31.519Z,14.13
2022-07-31T20:15:59.413Z,13.80
2022-07-31T20:18:30.596Z,12.30
2022-07-31T20:21:02.533Z,11.80
2022-07-31T20:23:30.889Z,10.30
2022-07-31T20:25:58.754Z,8.97
2022-07-31T20:28:26.890Z,8.43
2022-07-31T20:30:54.734Z,9.07
2022-07-31T20:33:22.340Z,8.80
2022-07-31T20:35:50.525Z,8.43
2022-07-31T20:38:20.336Z,9.27
2022-07-31T20:40:54.121Z,8.23
2022-07-31T20:43:23.165Z,8.23
2022-07-31T20:45:50.923Z,8.40
2022-07-31T20:48:18.775Z,8.33
2022-07-31T20:50:48.156Z,7.73
2022-07-31T20:53:16.272Z,8.27
2022-07-31T20:55:47.010Z,8.73
2022-07-31T20:58:14.895Z,9.07
2022-07-31T21:00:42.560Z,8.83
2022-07-31T21:03:10.167Z,9.97
2022-07-31T21:05:37.962Z,10.00
2022-07-31T21:08:05.799Z,10.57
2022-07-31T21:10:34.052Z,11.03
2022-07-31T21:13:03.006Z,10.80
2022-07-31T21:15:41.870Z,12.23
2022-07-31T21:18:12.412Z,12.07
2022-07-31T21:20:50.726Z,12.03
2022-07-31T21:23:21.603Z,11.70
2022-07-31T21:25:49.647Z,11.47
2022-07-31T21:28:19.254Z,12.30
2022-07-31T21:30:47.499Z,13.40
2022-07-31T21:33:15.522Z,12.03
2022-07-31T21:35:43.760Z,12.13
2022-07-31T21:38:11.859Z,12.80
2022-07-31T21:40:40.971Z,12.70
2022-07-31T21:43:09.065Z,13.10
2022-07-31T21:45:55.658Z,13.27
2022-07-31T21:48:26.797Z,14.00
2022-07-31T21:50:55.679Z,13.50
2022-07-31T21:53:23.703Z,13.60
2022-07-31T21:55:51.622Z,13.20
2022-07-31T21:58:19.392Z,13.67
2022-07-31T22:00:48.543Z,13.73
2022-07-31T22:03:16.157Z,14.00
2022-07-31T22:06:09.896Z,14.70
2022-07-31T22:08:37.591Z,14.37
2022-07-31T22:11:05.497Z,15.77
2022-07-31T22:13:33.214Z,16.33
2022-07-31T22:16:02.437Z,15.93
2022-07-31T22:18:32.205Z,18.17
2022-07-31T22:21:00.622Z,18.87
2022-07-31T22:23:28.964Z,19.97
2022-07-31T22:25:56.916Z,20.13
2022-07-31T22:28:26.761Z,18.70
2022-07-31T22:30:54.908Z,18.40
2022-07-31T22:33:24.381Z,19.73
2022-07-31T22:35:58.968Z,20.07
2022-07-31T22:38:29.755Z,21.43
2022-07-31T22:40:57.632Z,19.53
2022-07-31T22:44:10.668Z,20.47
2022-07-31T22:46:13.768Z,18.63
2022-07-31T22:48:42.910Z,19.80
2022-07-31T22:51:13.546Z,20.13
2022-07-31T22:53:42.165Z,20.13
2022-07-31T22:56:09.743Z,19.40
2022-07-31T22:58:37.344Z,18.20
2022-07-31T23:01:05.000Z,20.20
2022-07-31T23:03:32.610Z,20.30
2022-07-31T23:06:28.135Z,18.77
2022-07-31T23:08:53.584Z,18.47
2022-07-31T23:11:23.155Z,20.03
2022-07-31T23:13:51.040Z,19.93
2022-07-31T23:16:18.713Z,18.77
2022-07-31T23:18:46.507Z,19.93
2022-07-31T23:21:15.469Z,18.60
2022-07-31T23:23:47.963Z,19.47
2022-07-31T23:26:16.600Z,19.70
2022-07-31T23:28:44.269Z,18.93
2022-07-31T23:31:11.922Z,20.97
2022-07-31T23:33:39.554Z,19.03
2022-07-31T23:36:07.401Z,18.50
2022-07-31T23:38:36.307Z,21.20
2022-07-31T23:41:03.992Z,19.20
2022-07-31T23:43:30.780Z,19.00
2022-07-31T23:45:58.542Z,17.77
2022-07-31T23:48:29.279Z,16.60
2022-07-31T23:50:58.087Z,20.20
2022-07-31T23:53:25.794Z,19.10
2022-07-31T23:55:54.883Z,19.90
2022-07-31T23:58:22.497Z,18.53
